createdAt,value
2018-09-14T00:00:35.921Z,95802.73
2018-09-14T00:03:12.228Z,95797.69
2018-09-14T00:05:47.116Z,95803.43
2018-09-14T00:08:21.932Z,95803.66
2018-09-14T00:10:56.376Z,95802.45
2018-09-14T00:13:31.013Z,95806.70
2018-09-14T00:16:06.187Z,95805.84
2018-09-14T00:18:40.954Z,95805.61
2018-09-14T00:21:15.668Z,95805.70
2018-09-14T00:23:50.061Z,95806.81
2018-09-14T00:26:24.397Z,95811.11
2018-09-14T00:28:59.447Z,95808.19
2018-09-14T00:31:33.799Z,95809.20
2018-09-14T00:34:08.193Z,95811.78
2018-09-14T00:36:42.928Z,95808.80
2018-09-14T00:39:17.708Z,95801.35
2018-09-14T00:41:52.537Z,95798.66
2018-09-14T00:44:27.105Z,95806.52
2018-09-14T00:47:01.868Z,95805.48
2018-09-14T00:49:36.140Z,95809.72
2018-09-14T00:52:10.600Z,95813.34
2018-09-14T00:54:45.682Z,95812.11
2018-09-14T00:57:20.266Z,95815.28
2018-09-14T00:59:54.616Z,95813.17
2018-09-14T01:02:51.199Z,95811.28
2018-09-14T01:05:26.388Z,95811.31
2018-09-14T01:08:01.047Z,95811.42
2018-09-14T01:10:35.636Z,95814.00
2018-09-14T01:13:10.138Z,95810.39
2018-09-14T01:15:44.952Z,95811.48
2018-09-14T01:18:20.129Z,95817.62
2018-09-14T01:20:55.252Z,95817.97
2018-09-14T01:23:29.728Z,95823.40
2018-09-14T01:26:04.445Z,95818.33
2018-09-14T01:28:38.772Z,95819.00
2018-09-14T01:31:13.231Z,95822.60
2018-09-14T01:33:47.844Z,95821.80
2018-09-14T01:36:22.212Z,95824.78
2018-09-14T01:38:56.524Z,95826.03
2018-09-14T01:41:30.995Z,95822.95
2018-09-14T01:44:05.630Z,95821.44
2018-09-14T01:46:40.759Z,95820.70
2018-09-14T01:49:15.265Z,95818.28
2018-09-14T01:51:49.867Z,95818.71
2018-09-14T01:54:25.193Z,95816.76
2018-09-14T01:56:59.620Z,95819.09
2018-09-14T01:59:34.323Z,95818.52
2018-09-14T02:02:09.036Z,95817.40
2018-09-14T02:04:43.522Z,95818.43
2018-09-14T02:07:17.859Z,95819.91
2018-09-14T02:09:52.372Z,95816.92
2018-09-14T02:12:26.966Z,95815.73
2018-09-14T02:15:01.468Z,95818.78
2018-09-14T02:17:35.828Z,95817.20
2018-09-14T02:20:10.297Z,95815.27
2018-09-14T02:22:45.025Z,95809.27
2018-09-14T02:25:20.015Z,95810.25
2018-09-14T02:27:54.459Z,95816.00
2018-09-14T02:30:28.989Z,95819.50
2018-09-14T02:33:03.878Z,95819.51
2018-09-14T02:35:38.352Z,95818.55
2018-09-14T02:38:12.737Z,95820.23
2018-09-14T02:40:47.201Z,95820.36
2018-09-14T02:43:21.697Z,95817.73
2018-09-14T02:45:56.213Z,95820.57
2018-09-14T02:48:30.637Z,95821.16
2018-09-14T02:51:05.556Z,95827.77
2018-09-14T02:53:40.141Z,95827.11
2018-09-14T02:56:14.888Z,95837.88
2018-09-14T02:58:49.658Z,95839.66
2018-09-14T03:01:24.137Z,95841.99
2018-09-14T03:03:58.788Z,95848.09
2018-09-14T03:06:33.261Z,95845.79
2018-09-14T03:09:08.385Z,95846.67
2018-09-14T03:11:43.116Z,95851.48
2018-09-14T03:14:17.833Z,95848.93
2018-09-14T03:16:52.348Z,95845.16
2018-09-14T03:19:26.973Z,95850.13
2018-09-14T03:22:01.461Z,95845.48
2018-09-14T03:24:35.927Z,95845.05
2018-09-14T03:27:10.456Z,95846.08
2018-09-14T03:29:44.956Z,95845.20
2018-09-14T03:32:19.338Z,95847.08
2018-09-14T03:34:54.071Z,95857.91
2018-09-14T03:37:28.524Z,95860.18
2018-09-14T03:40:23.597Z,95855.70
2018-09-14T03:42:58.218Z,95862.30
2018-09-14T03:45:32.703Z,95865.64
2018-09-14T03:48:07.776Z,95874.77
2018-09-14T03:50:42.301Z,95875.48
2018-09-14T03:53:16.769Z,95874.33
2018-09-14T03:55:51.385Z,95876.72
2018-09-14T03:58:26.040Z,95876.20
2018-09-14T04:01:00.596Z,95871.38
2018-09-14T04:03:34.909Z,95878.17
2018-09-14T04:06:09.188Z,95871.89
2018-09-14T04:08:43.624Z,95867.09
2018-09-14T04:11:17.935Z,95868.74
2018-09-14T04:13:52.254Z,95869.64
2018-09-14T04:16:26.548Z,95866.43
2018-09-14T04:19:03.577Z,95870.56
2018-09-14T04:21:38.388Z,95872.89
2018-09-14T04:24:12.894Z,95872.17
2018-09-14T04:26:47.153Z,95873.56
2018-09-14T04:29:21.523Z,95873.52
2018-09-14T04:31:56.051Z,95878.27
2018-09-14T04:34:30.561Z,95877.14
2018-09-14T04:37:05.203Z,95877.86
2018-09-14T04:39:39.935Z,95879.06
2018-09-14T04:42:14.711Z,95880.73
2018-09-14T04:44:49.132Z,95881.08
2018-09-14T04:47:23.515Z,95890.19
2018-09-14T04:49:58.099Z,95887.05
2018-09-14T04:52:33.100Z,95888.23
2018-09-14T04:55:07.794Z,95888.17
2018-09-14T04:57:42.432Z,95884.31
2018-09-14T05:00:17.258Z,95884.72
2018-09-14T05:02:52.063Z,95888.97
2018-09-14T05:05:26.493Z,95892.17
2018-09-14T05:08:00.998Z,95895.89
2018-09-14T05:10:35.721Z,95896.25
2018-09-14T05:13:10.875Z,95895.69
2018-09-14T05:15:45.416Z,95900.94
2018-09-14T05:18:19.940Z,95891.02
2018-09-14T05:20:54.467Z,95890.37
2018-09-14T05:23:29.045Z,95895.39
2018-09-14T05:26:03.776Z,95900.77
2018-09-14T05:28:38.445Z,95905.55
2018-09-14T05:31:12.989Z,95907.66
2018-09-14T05:33:47.384Z,95909.99
2018-09-14T05:36:21.722Z,95912.81
2018-09-14T05:38:56.190Z,95914.13
2018-09-14T05:41:30.649Z,95917.21
2018-09-14T05:44:06.006Z,95925.89
2018-09-14T05:46:40.712Z,95923.13
2018-09-14T05:49:15.141Z,95929.45
2018-09-14T05:51:49.840Z,95932.24
2018-09-14T05:54:24.291Z,95935.89
2018-09-14T05:56:59.328Z,95939.19
2018-09-14T05:59:33.729Z,95934.64
2018-09-14T06:02:08.920Z,95943.03
2018-09-14T06:04:43.369Z,95939.04
2018-09-14T06:07:18.080Z,95933.28
2018-09-14T06:09:52.495Z,95940.35
2018-09-14T06:12:27.136Z,95939.79
2018-09-14T06:15:01.893Z,95936.44
2018-09-14T06:17:36.711Z,95941.16
2018-09-14T06:20:11.036Z,95945.93
2018-09-14T06:22:45.729Z,95944.03
2018-09-14T06:25:20.472Z,95948.10
2018-09-14T06:27:55.109Z,95943.86
2018-09-14T06:30:29.571Z,95945.27
2018-09-14T06:33:04.173Z,95948.69
2018-09-14T06:35:38.668Z,95954.45
2018-09-14T06:38:12.992Z,95956.95
2018-09-14T06:40:47.584Z,95960.30
2018-09-14T06:43:22.524Z,95958.10
2018-09-14T06:45:57.004Z,95956.44
2018-09-14T06:48:31.580Z,95955.09
2018-09-14T06:51:06.272Z,95959.77
2018-09-14T06:53:40.665Z,95960.73
2018-09-14T06:56:15.755Z,95961.45
2018-09-14T06:58:50.337Z,95960.65
2018-09-14T07:01:24.756Z,95967.52
2018-09-14T07:03:59.565Z,95963.14
2018-09-14T07:06:34.348Z,95966.44
2018-09-14T07:09:11.116Z,95963.08
2018-09-14T07:11:46.054Z,95967.64
2018-09-14T07:14:21.682Z,95967.13
2018-09-14T07:16:57.174Z,95968.02
2018-09-14T07:19:38.285Z,95978.74
2018-09-14T07:22:16.554Z,95975.39
2018-09-14T07:24:51.405Z,95980.00
2018-09-14T07:27:25.868Z,95978.09
2018-09-14T07:30:00.312Z,95984.09
2018-09-14T07:32:34.976Z,95982.89
2018-09-14T07:35:09.605Z,95991.95
2018-09-14T07:37:43.928Z,95995.25
2018-09-14T07:40:25.868Z,95991.59
2018-09-14T07:43:00.612Z,95994.23
2018-09-14T07:45:35.009Z,96006.49
2018-09-14T07:48:10.161Z,96008.47
2018-09-14T07:50:44.859Z,96013.22
2018-09-14T07:53:19.595Z,96012.92
2018-09-14T07:55:54.595Z,96012.98
2018-09-14T07:58:31.794Z,96005.61
2018-09-14T08:01:07.104Z,96008.66
2018-09-14T08:03:42.010Z,96012.75
2018-09-14T08:06:16.902Z,96014.81
2018-09-14T08:08:51.881Z,96020.77
2018-09-14T08:11:26.852Z,96022.52
2018-09-14T08:14:03.231Z,96025.91
2018-09-14T08:16:39.653Z,96015.67
2018-09-14T08:19:14.799Z,96020.38
2018-09-14T08:21:49.603Z,96024.16
2018-09-14T08:24:27.728Z,96025.39
2018-09-14T08:27:03.061Z,96039.09
2018-09-14T08:29:38.908Z,96030.39
2018-09-14T08:32:13.998Z,96027.26
2018-09-14T08:34:48.776Z,96036.61
2018-09-14T08:37:23.197Z,96031.66
2018-09-14T08:39:57.679Z,96028.48
2018-09-14T08:42:32.830Z,96030.20
2018-09-14T08:45:07.364Z,96034.62
2018-09-14T08:47:42.514Z,96039.72
2018-09-14T08:50:17.191Z,96040.41
2018-09-14T08:52:51.993Z,96035.30
2018-09-14T08:55:26.284Z,96034.95
2018-09-14T08:58:00.942Z,96038.89
2018-09-14T09:00:41.464Z,96038.03
2018-09-14T09:03:16.060Z,96036.69
2018-09-14T09:05:50.562Z,96044.14
2018-09-14T09:08:24.992Z,96037.25
2018-09-14T09:10:59.537Z,96038.47
2018-09-14T09:13:34.101Z,96033.77
2018-09-14T09:16:10.673Z,96039.39
2018-09-14T09:18:45.237Z,96037.66
2018-09-14T09:21:19.893Z,96038.32
2018-09-14T09:23:54.425Z,96044.48
2018-09-14T09:26:29.868Z,96038.88
2018-09-14T09:29:05.180Z,96042.25
2018-09-14T09:31:39.661Z,96043.76
2018-09-14T09:34:14.090Z,96039.11
2018-09-14T09:36:48.721Z,96045.58
2018-09-14T09:39:23.044Z,96041.21
2018-09-14T09:41:58.620Z,96043.98
2018-09-14T09:44:32.887Z,96042.86
2018-09-14T09:47:07.447Z,96044.51
2018-09-14T09:49:42.109Z,96041.91
2018-09-14T09:52:16.786Z,96044.00
2018-09-14T09:54:51.299Z,96044.77
2018-09-14T09:57:25.733Z,96049.73
2018-09-14T10:00:00.987Z,96048.89
2018-09-14T10:02:38.939Z,96042.76
2018-09-14T10:05:19.036Z,96043.59
2018-09-14T10:07:53.583Z,96045.80
2018-09-14T10:10:27.908Z,96043.40
2018-09-14T10:13:02.671Z,96044.27
2018-09-14T10:15:37.556Z,96038.84
2018-09-14T10:18:11.907Z,96029.89
2018-09-14T10:20:46.747Z,96029.69
2018-09-14T10:23:21.779Z,96036.64
2018-09-14T10:25:56.608Z,96030.84
2018-09-14T10:28:30.967Z,96028.16
2018-09-14T10:31:06.072Z,96032.40
2018-09-14T10:33:40.414Z,96025.77
2018-09-14T10:36:14.771Z,96030.66
2018-09-14T10:38:49.667Z,96028.52
2018-09-14T10:41:24.565Z,96033.98
2018-09-14T10:43:59.364Z,96033.39
2018-09-14T10:46:34.163Z,96023.01
2018-09-14T10:49:08.654Z,96027.09
2018-09-14T10:51:43.288Z,96026.69
2018-09-14T10:54:17.688Z,96026.30
2018-09-14T10:56:52.114Z,96026.56
2018-09-14T10:59:26.759Z,96025.64
2018-09-14T11:02:01.799Z,96025.94
2018-09-14T11:04:36.605Z,96023.25
2018-09-14T11:07:11.631Z,96026.91
2018-09-14T11:09:46.376Z,96031.49
2018-09-14T11:12:21.588Z,96033.84
2018-09-14T11:14:55.915Z,96031.80
2018-09-14T11:17:30.527Z,96028.70
2018-09-14T11:20:05.208Z,96029.29
2018-09-14T11:22:39.921Z,96021.64
2018-09-14T11:25:15.228Z,96021.45
2018-09-14T11:27:49.937Z,96025.70
2018-09-14T11:30:24.577Z,96025.20
2018-09-14T11:32:59.412Z,96022.89
2018-09-14T11:35:34.339Z,96020.19
2018-09-14T11:38:09.005Z,96012.09
2018-09-14T11:40:43.609Z,96009.57
2018-09-14T11:43:18.175Z,96009.52
2018-09-14T11:45:52.700Z,96010.19
2018-09-14T11:48:27.485Z,96004.01
2018-09-14T11:51:01.956Z,96003.42
2018-09-14T11:53:36.476Z,96002.94
2018-09-14T11:56:11.684Z,95998.03
2018-09-14T11:58:45.994Z,95997.89
2018-09-14T12:01:20.523Z,95995.64
2018-09-14T12:03:55.563Z,95994.84
2018-09-14T12:06:30.371Z,95990.34
2018-09-14T12:09:07.400Z,95984.48
2018-09-14T12:11:42.364Z,95981.50
2018-09-14T12:14:16.903Z,95974.52
2018-09-14T12:16:51.364Z,95973.49
2018-09-14T12:19:26.360Z,95972.00
2018-09-14T12:22:01.134Z,95970.91
2018-09-14T12:24:35.576Z,95965.55
2018-09-14T12:27:10.237Z,95963.14
2018-09-14T12:29:44.652Z,95966.66
2018-09-14T12:32:19.841Z,95970.80
2018-09-14T12:34:54.591Z,95963.79
2018-09-14T12:37:28.944Z,95960.09
2018-09-14T12:40:04.452Z,95960.11
2018-09-14T12:42:40.088Z,95960.38
2018-09-14T12:45:14.553Z,95962.92
2018-09-14T12:47:48.859Z,95963.89
2018-09-14T12:50:23.276Z,95962.81
2018-09-14T12:52:57.560Z,95961.65
2018-09-14T12:55:32.384Z,95965.23
2018-09-14T12:58:07.384Z,95966.25
2018-09-14T13:00:42.672Z,95959.67
2018-09-14T13:03:17.039Z,95958.59
2018-09-14T13:05:51.711Z,95960.92
2018-09-14T13:08:26.227Z,95959.91
2018-09-14T13:11:00.761Z,95961.40
2018-09-14T13:13:35.316Z,95957.91
2018-09-14T13:16:10.452Z,95956.16
2018-09-14T13:18:45.095Z,95953.72
2018-09-14T13:21:19.624Z,95953.22
2018-09-14T13:23:54.992Z,95943.82
2018-09-14T13:26:29.643Z,95941.06
2018-09-14T13:29:04.056Z,95934.55
2018-09-14T13:31:39.075Z,95938.57
2018-09-14T13:34:13.634Z,95938.11
2018-09-14T13:36:48.597Z,95935.80
2018-09-14T13:39:23.761Z,95933.52
2018-09-14T13:41:58.529Z,95929.29
2018-09-14T13:44:33.885Z,95934.88
2018-09-14T13:47:08.900Z,95930.05
2018-09-14T13:49:43.344Z,95929.36
2018-09-14T13:52:18.175Z,95925.35
2018-09-14T13:54:52.610Z,95925.80
2018-09-14T13:57:27.092Z,95928.80
2018-09-14T14:00:02.741Z,95933.86
2018-09-14T14:02:37.415Z,95932.99
2018-09-14T14:05:12.735Z,95926.53
2018-09-14T14:07:47.112Z,95932.88
2018-09-14T14:10:22.326Z,95919.41
2018-09-14T14:12:57.032Z,95922.75
2018-09-14T14:15:31.631Z,95923.69
2018-09-14T14:18:06.220Z,95925.31
2018-09-14T14:20:41.006Z,95921.97
2018-09-14T14:23:17.842Z,95921.17
2018-09-14T14:25:53.087Z,95926.34
2018-09-14T14:28:28.093Z,95917.17
2018-09-14T14:31:03.700Z,95920.42
2018-09-14T14:33:38.185Z,95921.56
2018-09-14T14:36:12.892Z,95916.83
2018-09-14T14:38:47.517Z,95905.78
2018-09-14T14:41:22.425Z,95906.11
2018-09-14T14:43:57.254Z,95907.72
2018-09-14T14:46:31.536Z,95906.90
2018-09-14T14:49:06.257Z,95900.41
2018-09-14T14:51:40.818Z,95904.37
2018-09-14T14:54:15.440Z,95900.03
2018-09-14T14:56:50.016Z,95904.73
2018-09-14T14:59:24.944Z,95901.24
2018-09-14T15:01:59.662Z,95909.06
2018-09-14T15:04:34.620Z,95906.41
2018-09-14T15:07:09.436Z,95900.46
2018-09-14T15:09:44.382Z,95901.20
2018-09-14T15:12:18.847Z,95902.03
2018-09-14T15:14:53.415Z,95898.86
2018-09-14T15:17:28.008Z,95894.31
2018-09-14T15:20:02.661Z,95892.39
2018-09-14T15:22:37.868Z,95888.55
2018-09-14T15:25:12.192Z,95886.59
2018-09-14T15:27:46.678Z,95890.55
2018-09-14T15:30:21.928Z,95890.13
2018-09-14T15:32:56.770Z,95890.17
2018-09-14T15:35:31.273Z,95882.08
2018-09-14T15:38:05.927Z,95884.58
2018-09-14T15:40:40.412Z,95884.94
2018-09-14T15:43:14.791Z,95877.33
2018-09-14T15:45:49.639Z,95880.88
2018-09-14T15:48:24.045Z,95878.34
2018-09-14T15:50:58.391Z,95877.81
2018-09-14T15:53:33.671Z,95879.67
2018-09-14T15:56:08.500Z,95882.02
2018-09-14T15:58:43.214Z,95883.75
2018-09-14T16:01:17.753Z,95883.34
2018-09-14T16:03:52.430Z,95882.96
2018-09-14T16:06:27.177Z,95882.88
2018-09-14T16:09:02.292Z,95883.37
2018-09-14T16:11:37.803Z,95880.42
2018-09-14T16:14:12.255Z,95885.59
2018-09-14T16:16:46.571Z,95883.88
2018-09-14T16:19:21.131Z,95885.53
2018-09-14T16:21:55.607Z,95884.72
2018-09-14T16:24:30.072Z,95895.28
2018-09-14T16:27:04.758Z,95893.89
2018-09-14T16:29:39.244Z,95888.05
2018-09-14T16:32:14.027Z,95884.05
2018-09-14T16:34:48.333Z,95885.31
2018-09-14T16:37:22.635Z,95893.53
2018-09-14T16:39:57.287Z,95893.20
2018-09-14T16:42:31.813Z,95899.02
2018-09-14T16:45:07.019Z,95895.86
2018-09-14T16:47:41.330Z,95903.27
2018-09-14T16:50:16.360Z,95899.58
2018-09-14T16:52:51.258Z,95895.96
2018-09-14T16:55:25.739Z,95898.81
2018-09-14T16:58:00.592Z,95897.18
2018-09-14T17:00:35.199Z,95897.57
2018-09-14T17:03:10.152Z,95897.58
2018-09-14T17:05:44.571Z,95904.23
2018-09-14T17:08:18.955Z,95911.10
2018-09-14T17:10:53.542Z,95916.31
2018-09-14T17:13:27.965Z,95917.41
2018-09-14T17:16:03.439Z,95920.89
2018-09-14T17:18:39.361Z,95917.48
2018-09-14T17:21:14.532Z,95917.30
2018-09-14T17:23:49.732Z,95915.50
2018-09-14T17:26:24.132Z,95919.27
2018-09-14T17:28:58.594Z,95923.67
2018-09-14T17:31:33.599Z,95924.94
2018-09-14T17:34:08.116Z,95928.12
2018-09-14T17:36:42.584Z,95920.06
2018-09-14T17:39:16.957Z,95931.34
2018-09-14T17:41:51.380Z,95930.47
2018-09-14T17:44:26.071Z,95934.07
2018-09-14T17:47:00.699Z,95929.61
2018-09-14T17:49:35.040Z,95936.80
2018-09-14T17:52:09.960Z,95937.52
2018-09-14T17:54:44.644Z,95930.13
2018-09-14T17:57:19.308Z,95931.53
2018-09-14T17:59:54.044Z,95936.48
2018-09-14T18:02:28.487Z,95937.56
2018-09-14T18:05:03.387Z,95938.63
2018-09-14T18:07:38.471Z,95932.20
2018-09-14T18:10:13.087Z,95936.08
2018-09-14T18:12:48.059Z,95935.39
2018-09-14T18:15:22.886Z,95938.75
2018-09-14T18:17:57.360Z,95936.63
2018-09-14T18:20:31.972Z,95931.73
2018-09-14T18:23:07.243Z,95935.02
2018-09-14T18:25:41.979Z,95932.14
2018-09-14T18:28:16.868Z,95929.22
2018-09-14T18:30:51.655Z,95928.78
2018-09-14T18:33:26.349Z,95930.17
2018-09-14T18:36:00.601Z,95930.86
2018-09-14T18:38:36.916Z,95942.95
2018-09-14T18:41:11.619Z,95953.03
2018-09-14T18:43:46.148Z,95958.95
2018-09-14T18:46:20.707Z,95960.95
2018-09-14T18:48:55.248Z,95957.92
2018-09-14T18:51:29.556Z,95962.77
2018-09-14T18:54:04.507Z,95967.34
2018-09-14T18:56:39.248Z,95968.45
2018-09-14T18:59:14.688Z,95972.43
2018-09-14T19:01:49.112Z,95971.11
2018-09-14T19:04:24.040Z,95982.58
2018-09-14T19:06:58.864Z,95990.88
2018-09-14T19:09:33.351Z,95986.70
2018-09-14T19:12:08.061Z,95992.50
2018-09-14T19:14:42.720Z,95991.31
2018-09-14T19:17:17.184Z,95988.18
2018-09-14T19:19:52.074Z,95984.53
2018-09-14T19:22:26.602Z,95992.20
2018-09-14T19:25:01.445Z,95990.08
2018-09-14T19:27:36.363Z,95989.06
2018-09-14T19:30:10.696Z,95987.86
2018-09-14T19:32:45.051Z,95987.53
2018-09-14T19:35:19.667Z,95989.78
2018-09-14T19:37:54.276Z,95982.09
2018-09-14T19:40:29.071Z,95984.72
2018-09-14T19:43:03.643Z,95992.47
2018-09-14T19:45:38.530Z,95991.15
2018-09-14T19:48:13.043Z,95989.76
2018-09-14T19:50:48.867Z,95990.20
2018-09-14T19:53:23.363Z,95997.29
2018-09-14T19:55:59.273Z,95995.82
2018-09-14T19:58:34.143Z,95999.17
2018-09-14T20:01:10.851Z,95997.21
2018-09-14T20:03:45.300Z,96001.31
2018-09-14T20:06:19.972Z,96000.00
2018-09-14T20:08:54.831Z,96001.11
2018-09-14T20:11:29.572Z,95994.73
2018-09-14T20:14:04.703Z,95995.24
2018-09-14T20:16:39.683Z,95989.36
2018-09-14T20:19:14.215Z,96003.80
2018-09-14T20:21:49.383Z,96005.62
2018-09-14T20:24:24.220Z,96007.59
2018-09-14T20:26:58.603Z,96005.47
2018-09-14T20:29:33.180Z,96007.08
2018-09-14T20:32:08.035Z,96006.55
2018-09-14T20:34:42.848Z,96002.78
2018-09-14T20:37:18.334Z,96009.25
2018-09-14T20:39:53.552Z,96012.04
2018-09-14T20:42:28.059Z,96016.11
2018-09-14T20:45:02.829Z,96014.48
2018-09-14T20:47:37.199Z,96007.75
2018-09-14T20:50:11.817Z,96003.35
2018-09-14T20:55:26.072Z,95996.20
2018-09-14T20:58:00.619Z,95995.61
2018-09-14T21:00:35.164Z,96001.28
2018-09-14T21:03:09.765Z,96000.88
2018-09-14T21:05:44.260Z,96004.30
2018-09-14T21:08:18.665Z,95999.69
2018-09-14T21:10:53.496Z,96001.03
2018-09-14T21:13:28.240Z,95998.33
2018-09-14T21:16:02.652Z,95996.42
2018-09-14T21:18:37.346Z,95997.34
2018-09-14T21:21:12.379Z,95997.52
2018-09-14T21:23:46.699Z,95996.17
2018-09-14T21:26:21.719Z,95996.59
2018-09-14T21:28:56.291Z,95993.97
2018-09-14T21:31:30.909Z,95992.81
2018-09-14T21:34:06.121Z,95994.64
2018-09-14T21:36:40.408Z,95986.88
2018-09-14T21:39:14.708Z,95986.08
2018-09-14T21:41:49.476Z,95988.22
2018-09-14T21:44:23.921Z,95988.84
2018-09-14T21:46:58.271Z,95991.53
2018-09-14T21:49:32.807Z,95994.58
2018-09-14T21:52:07.488Z,95995.08
2018-09-14T21:54:42.032Z,95991.37
2018-09-14T21:57:16.340Z,95998.44
2018-09-14T21:59:50.976Z,96000.88
2018-09-14T22:02:25.916Z,96002.19
2018-09-14T22:05:00.840Z,96001.08
2018-09-14T22:07:35.171Z,96000.73
2018-09-14T22:10:10.149Z,95993.80
2018-09-14T22:12:44.527Z,95993.78
2018-09-14T22:15:18.864Z,96001.47
2018-09-14T22:17:53.492Z,96005.19
2018-09-14T22:20:28.645Z,96002.37
2018-09-14T22:23:03.404Z,96008.42
2018-09-14T22:25:38.276Z,96004.47
2018-09-14T22:28:12.884Z,96005.19
2018-09-14T22:30:47.432Z,96001.76
2018-09-14T22:33:21.759Z,96007.80
2018-09-14T22:35:56.394Z,96007.72
2018-09-14T22:38:31.293Z,96011.33
2018-09-14T22:41:05.642Z,96007.30
2018-09-14T22:43:39.952Z,96003.47
2018-09-14T22:46:15.116Z,96009.12
2018-09-14T22:48:49.812Z,96004.89
2018-09-14T22:51:24.397Z,96007.81
2018-09-14T22:53:59.072Z,96006.19
2018-09-14T22:56:33.504Z,96008.51
2018-09-14T22:59:08.789Z,96006.09
2018-09-14T23:01:43.435Z,96013.25
2018-09-14T23:04:17.907Z,96020.31
2018-09-14T23:06:52.640Z,96018.89
2018-09-14T23:09:27.145Z,96014.77
2018-09-14T23:12:02.775Z,96013.06
2018-09-14T23:14:37.847Z,96014.37
2018-09-14T23:17:13.416Z,96012.35
2018-09-14T23:19:48.120Z,96017.19
2018-09-14T23:22:22.796Z,96012.35
2018-09-14T23:24:57.539Z,96017.29
2018-09-14T23:27:31.961Z,96017.48
2018-09-14T23:30:07.591Z,96021.81
2018-09-14T23:32:42.391Z,96021.52
2018-09-14T23:35:17.335Z,96024.97
2018-09-14T23:37:52.100Z,96030.71
2018-09-14T23:40:26.510Z,96032.12
2018-09-14T23:43:00.933Z,96028.38
2018-09-14T23:45:35.871Z,96028.58
2018-09-14T23:48:10.536Z,96025.34
2018-09-14T23:50:45.456Z,96018.59
2018-09-14T23:53:19.801Z,96024.95
2018-09-14T23:55:54.378Z,96024.05
2018-09-14T23:58:28.925Z,96029.33
